sensor_id;sensor_type;location;lat;lon;timestamp;pressure;altitude;pressure_sealevel;temperature;humidity
69528;BME280;57136;51.986;4.468;2022-10-31T00:00:30;102135.16;;;12.21;100.00
69528;BME280;57136;51.986;4.468;2022-10-31T00:02:55;102122.97;;;12.20;100.00
69528;BME280;57136;51.986;4.468;2022-10-31T00:05:20;102126.47;;;12.22;100.00
69528;BME280;57136;51.986;4.468;2022-10-31T00:07:46;102131.75;;;12.24;100.00
69528;BME280;57136;51.986;4.468;2022-10-31T00:10:11;102127.47;;;12.29;100.00
69528;BME280;57136;51.986;4.468;2022-10-31T00:12:36;102130.19;;;12.34;100.00
69528;BME280;57136;51.986;4.468;2022-10-31T00:15:02;102132.81;;;12.35;100.00
69528;BME280;57136;51.986;4.468;2022-10-31T00:17:27;102131.09;;;12.37;100.00
69528;BME280;57136;51.986;4.468;2022-10-31T00:19:53;102136.44;;;12.43;100.00
69528;BME280;57136;51.986;4.468;2022-10-31T00:22:18;102139.91;;;12.42;100.00
69528;BME280;57136;51.986;4.468;2022-10-31T00:24:43;102140.78;;;12.41;100.00
69528;BME280;57136;51.986;4.468;2022-10-31T00:27:08;102140.78;;;12.41;100.00
69528;BME280;57136;51.986;4.468;2022-10-31T00:29:34;102143.31;;;12.38;100.00
69528;BME280;57136;51.986;4.468;2022-10-31T00:31:59;102143.25;;;12.35;100.00
69528;BME280;57136;51.986;4.468;2022-10-31T00:34:24;102139.75;;;12.33;100.00
69528;BME280;57136;51.986;4.468;2022-10-31T00:36:50;102139.72;;;12.32;100.00
69528;BME280;57136;51.986;4.468;2022-10-31T00:39:15;102153.72;;;12.35;100.00
69528;BME280;57136;51.986;4.468;2022-10-31T00:41:40;102153.72;;;12.35;100.00
69528;BME280;57136;51.986;4.468;2022-10-31T00:44:06;102153.78;;;12.38;100.00
69528;BME280;57136;51.986;4.468;2022-10-31T00:46:32;102153.78;;;12.37;100.00
69528;BME280;57136;51.986;4.468;2022-10-31T00:48:57;102150.19;;;12.32;100.00
69528;BME280;57136;51.986;4.468;2022-10-31T00:51:22;102142.28;;;12.28;100.00
69528;BME280;57136;51.986;4.468;2022-10-31T00:53:47;102149.19;;;12.25;100.00
69528;BME280;57136;51.986;4.468;2022-10-31T00:56:13;102151.69;;;12.20;100.00
69528;BME280;57136;51.986;4.468;2022-10-31T00:58:38;102137.66;;;12.15;100.00
69528;BME280;57136;51.986;4.468;2022-10-31T01:01:03;102136.75;;;12.11;100.00
69528;BME280;57136;51.986;4.468;2022-10-31T01:03:31;102122.69;;;12.05;100.00
69528;BME280;57136;51.986;4.468;2022-10-31T01:08:24;102128.88;;;12.10;100.00
69528;BME280;57136;51.986;4.468;2022-10-31T01:11:13;102128.91;;;12.13;100.00
69528;BME280;57136;51.986;4.468;2022-10-31T01:13:40;102135.03;;;12.12;100.00
69528;BME280;57136;51.986;4.468;2022-10-31T01:16:07;102127.13;;;12.09;100.00
69528;BME280;57136;51.986;4.468;2022-10-31T01:18:33;102127.00;;;12.04;100.00
69528;BME280;57136;51.986;4.468;2022-10-31T01:23:32;102127.81;;;12.00;100.00
69528;BME280;57136;51.986;4.468;2022-10-31T01:26:22;102123.31;;;11.93;100.00
69528;BME280;57136;51.986;4.468;2022-10-31T01:28:55;102120.63;;;11.91;100.00
69528;BME280;57136;51.986;4.468;2022-10-31T01:31:24;102123.19;;;11.88;100.00
69528;BME280;57136;51.986;4.468;2022-10-31T01:33:50;102117.03;;;11.83;100.00
69528;BME280;57136;51.986;4.468;2022-10-31T01:36:25;102109.97;;;11.79;100.00
69528;BME280;57136;51.986;4.468;2022-10-31T01:38:53;102109.00;;;11.75;100.00
69528;BME280;57136;51.986;4.468;2022-10-31T01:41:23;102116.84;;;11.75;100.00
69528;BME280;57136;51.986;4.468;2022-10-31T01:43:56;102111.59;;;11.74;100.00
69528;BME280;57136;51.986;4.468;2022-10-31T01:46:37;102101.84;;;11.65;100.00
69528;BME280;57136;51.986;4.468;2022-10-31T01:49:09;102100.97;;;11.64;100.00
69528;BME280;57136;51.986;4.468;2022-10-31T01:51:39;102099.13;;;11.60;100.00
69528;BME280;57136;51.986;4.468;2022-10-31T01:54:08;102099.13;;;11.60;100.00
69528;BME280;57136;51.986;4.468;2022-10-31T01:56:39;102101.66;;;11.57;100.00
69528;BME280;57136;51.986;4.468;2022-10-31T01:59:09;102099.91;;;11.54;100.00
69528;BME280;57136;51.986;4.468;2022-10-31T02:01:37;102100.59;;;11.47;100.00
69528;BME280;57136;51.986;4.468;2022-10-31T02:04:02;102103.97;;;11.40;100.00
69528;BME280;57136;51.986;4.468;2022-10-31T02:06:38;102096.84;;;11.34;100.00
69528;BME280;57136;51.986;4.468;2022-10-31T02:09:06;102098.47;;;11.29;100.00
69528;BME280;57136;51.986;4.468;2022-10-31T02:11:32;102101.13;;;11.31;100.00
69528;BME280;57136;51.986;4.468;2022-10-31T02:14:01;102097.63;;;11.30;100.00
69528;BME280;57136;51.986;4.468;2022-10-31T02:16:26;102105.41;;;11.27;100.00
69528;BME280;57136;51.986;4.468;2022-10-31T02:18:52;102109.72;;;11.25;100.00
69528;BME280;57136;51.986;4.468;2022-10-31T02:21:44;102102.75;;;11.24;100.00
69528;BME280;57136;51.986;4.468;2022-10-31T02:27:15;102110.44;;;11.19;100.00
69528;BME280;57136;51.986;4.468;2022-10-31T02:30:09;102112.97;;;11.15;100.00
69528;BME280;57136;51.986;4.468;2022-10-31T02:32:52;102117.25;;;11.11;100.00
69528;BME280;57136;51.986;4.468;2022-10-31T02:38:37;102104.91;;;11.05;100.00
69528;BME280;57136;51.986;4.468;2022-10-31T02:41:06;102110.97;;;11.04;100.00
69528;BME280;57136;51.986;4.468;2022-10-31T02:43:53;102107.44;;;11.02;100.00
69528;BME280;57136;51.986;4.468;2022-10-31T02:46:49;102114.41;;;11.02;100.00
69528;BME280;57136;51.986;4.468;2022-10-31T02:49:21;102097.00;;;11.02;100.00
69528;BME280;57136;51.986;4.468;2022-10-31T02:51:48;102096.91;;;10.98;100.00
69528;BME280;57136;51.986;4.468;2022-10-31T02:54:21;102105.59;;;10.97;100.00
69528;BME280;57136;51.986;4.468;2022-10-31T02:56:48;102112.56;;;10.96;100.00
69528;BME280;57136;51.986;4.468;2022-10-31T02:59:16;102101.19;;;10.94;100.00
69528;BME280;57136;51.986;4.468;2022-10-31T03:02:03;102102.97;;;10.95;100.00
69528;BME280;57136;51.986;4.468;2022-10-31T03:07:35;102104.75;;;10.98;100.00
69528;BME280;57136;51.986;4.468;2022-10-31T03:12:53;102096.22;;;11.05;100.00
69528;BME280;57136;51.986;4.468;2022-10-31T03:15:50;102098.13;;;11.12;100.00
69528;BME280;57136;51.986;4.468;2022-10-31T03:20:49;102098.94;;;11.09;100.00
69528;BME280;57136;51.986;4.468;2022-10-31T03:23:16;102096.13;;;11.00;100.00
69528;BME280;57136;51.986;4.468;2022-10-31T03:25:44;102095.16;;;10.97;100.00
69528;BME280;57136;51.986;4.468;2022-10-31T03:28:12;102103.75;;;10.92;100.00
69528;BME280;57136;51.986;4.468;2022-10-31T03:30:42;102109.72;;;10.87;100.00
69528;BME280;57136;51.986;4.468;2022-10-31T03:33:16;102106.88;;;10.77;100.00
69528;BME280;57136;51.986;4.468;2022-10-31T03:35:45;102107.84;;;10.81;100.00
69528;BME280;57136;51.986;4.468;2022-10-31T03:38:12;102102.72;;;10.86;100.00
69528;BME280;57136;51.986;4.468;2022-10-31T03:40:40;102107.97;;;10.87;100.00
69528;BME280;57136;51.986;4.468;2022-10-31T03:43:10;102100.09;;;10.84;100.00
69528;BME280;57136;51.986;4.468;2022-10-31T03:45:41;102101.72;;;10.79;100.00
69528;BME280;57136;51.986;4.468;2022-10-31T03:48:09;102101.72;;;10.79;100.00
69528;BME280;57136;51.986;4.468;2022-10-31T03:50:57;102098.41;;;10.86;100.00
69528;BME280;57136;51.986;4.468;2022-10-31T03:53:30;102096.69;;;10.88;100.00
69528;BME280;57136;51.986;4.468;2022-10-31T03:56:02;102098.50;;;10.91;100.00
69528;BME280;57136;51.986;4.468;2022-10-31T03:58:55;102102.00;;;10.91;100.00
69528;BME280;57136;51.986;4.468;2022-10-31T04:01:23;102095.00;;;10.90;100.00
69528;BME280;57136;51.986;4.468;2022-10-31T04:03:49;102100.31;;;10.93;100.00
69528;BME280;57136;51.986;4.468;2022-10-31T04:06:16;102100.09;;;10.84;100.00
69528;BME280;57136;51.986;4.468;2022-10-31T04:08:57;102100.75;;;10.75;100.00
69528;BME280;57136;51.986;4.468;2022-10-31T04:11:29;102103.25;;;10.71;100.00
69528;BME280;57136;51.986;4.468;2022-10-31T04:13:56;102098.09;;;10.74;100.00
69528;BME280;57136;51.986;4.468;2022-10-31T04:16:23;102102.41;;;10.72;100.00
69528;BME280;57136;51.986;4.468;2022-10-31T04:18:50;102103.25;;;10.71;100.00
69528;BME280;57136;51.986;4.468;2022-10-31T04:21:15;102103.22;;;10.69;100.00
69528;BME280;57136;51.986;4.468;2022-10-31T04:23:41;102103.94;;;10.63;100.00
69528;BME280;57136;51.986;4.468;2022-10-31T04:26:08;102107.34;;;10.59;100.00
69528;BME280;57136;51.986;4.468;2022-10-31T04:28:35;102098.59;;;10.57;100.00
69528;BME280;57136;51.986;4.468;2022-10-31T04:31:00;102106.34;;;10.56;100.00
69528;BME280;57136;51.986;4.468;2022-10-31T04:33:26;102107.97;;;10.51;100.00
69528;BME280;57136;51.986;4.468;2022-10-31T04:35:51;102096.50;;;10.42;100.00
69528;BME280;57136;51.986;4.468;2022-10-31T04:38:16;102098.91;;;10.38;100.00
69528;BME280;57136;51.986;4.468;2022-10-31T04:40:41;102098.16;;;10.40;100.00
69528;BME280;57136;51.986;4.468;2022-10-31T04:43:07;102107.69;;;10.40;100.00
69528;BME280;57136;51.986;4.468;2022-10-31T04:45:32;102096.41;;;10.39;100.00
69528;BME280;57136;51.986;4.468;2022-10-31T04:47:57;102100.59;;;10.35;100.00
69528;BME280;57136;51.986;4.468;2022-10-31T04:50:23;102104.84;;;10.30;100.00
69528;BME280;57136;51.986;4.468;2022-10-31T04:52:48;102090.03;;;10.29;100.00
69528;BME280;57136;51.986;4.468;2022-10-31T04:55:14;102090.00;;;10.28;100.00
69528;BME280;57136;51.986;4.468;2022-10-31T04:57:44;102089.97;;;10.26;100.00
69528;BME280;57136;51.986;4.468;2022-10-31T05:00:11;102088.13;;;10.24;100.00
69528;BME280;57136;51.986;4.468;2022-10-31T05:02:53;102082.09;;;10.25;100.00
69528;BME280;57136;51.986;4.468;2022-10-31T05:05:21;102087.47;;;10.31;100.00
69528;BME280;57136;51.986;4.468;2022-10-31T05:07:49;102087.38;;;10.28;100.00
69528;BME280;57136;51.986;4.468;2022-10-31T05:10:17;102091.88;;;10.33;100.00
69528;BME280;57136;51.986;4.468;2022-10-31T05:13:03;102093.78;;;10.39;100.00
69528;BME280;57136;51.986;4.468;2022-10-31T05:15:29;102092.13;;;10.41;100.00
69528;BME280;57136;51.986;4.468;2022-10-31T05:17:55;102085.97;;;10.39;100.00
69528;BME280;57136;51.986;4.468;2022-10-31T05:20:24;102081.78;;;10.44;100.00
69528;BME280;57136;51.986;4.468;2022-10-31T05:22:52;102079.09;;;10.41;100.00
69528;BME280;57136;51.986;4.468;2022-10-31T05:25:18;102078.97;;;10.38;100.00
69528;BME280;57136;51.986;4.468;2022-10-31T05:27:46;102067.63;;;10.36;100.00
69528;BME280;57136;51.986;4.468;2022-10-31T05:30:14;102069.22;;;10.31;100.00
69528;BME280;57136;51.986;4.468;2022-10-31T05:32:42;102068.28;;;10.27;100.00
69528;BME280;57136;51.986;4.468;2022-10-31T05:35:10;102063.84;;;10.25;100.00
69528;BME280;57136;51.986;4.468;2022-10-31T05:37:36;102064.66;;;10.22;100.00
69528;BME280;57136;51.986;4.468;2022-10-31T05:40:03;102067.22;;;10.20;100.00
69528;BME280;57136;51.986;4.468;2022-10-31T05:42:29;102059.34;;;10.17;100.00
69528;BME280;57136;51.986;4.468;2022-10-31T05:44:54;102068.69;;;10.09;100.00
69528;BME280;57136;51.986;4.468;2022-10-31T05:47:20;102066.84;;;10.07;100.00
69528;BME280;57136;51.986;4.468;2022-10-31T05:49:45;102070.38;;;10.07;100.00
69528;BME280;57136;51.986;4.468;2022-10-31T05:52:10;102066.56;;;9.96;100.00
69528;BME280;57136;51.986;4.468;2022-10-31T05:54:36;102066.50;;;9.93;100.00
69528;BME280;57136;51.986;4.468;2022-10-31T05:57:01;102068.31;;;9.95;100.00
69528;BME280;57136;51.986;4.468;2022-10-31T05:59:26;102060.69;;;10.01;100.00
69528;BME280;57136;51.986;4.468;2022-10-31T06:01:52;102066.91;;;10.08;100.00
69528;BME280;57136;51.986;4.468;2022-10-31T06:04:17;102065.25;;;10.10;100.00
69528;BME280;57136;51.986;4.468;2022-10-31T06:06:42;102057.50;;;10.13;100.00
69528;BME280;57136;51.986;4.468;2022-10-31T06:09:07;102060.13;;;10.15;100.00
69528;BME280;57136;51.986;4.468;2022-10-31T06:11:33;102062.84;;;10.19;100.00
69528;BME280;57136;51.986;4.468;2022-10-31T06:13:58;102058.63;;;10.23;100.00
69528;BME280;57136;51.986;4.468;2022-10-31T06:16:23;102062.16;;;10.25;100.00
69528;BME280;57136;51.986;4.468;2022-10-31T06:18:49;102061.25;;;10.25;100.00
69528;BME280;57136;51.986;4.468;2022-10-31T06:21:14;102067.75;;;10.39;100.00
69528;BME280;57136;51.986;4.468;2022-10-31T06:23:39;102067.34;;;10.60;100.00
69528;BME280;57136;51.986;4.468;2022-10-31T06:26:04;102073.38;;;10.56;100.00
69528;BME280;57136;51.986;4.468;2022-10-31T06:28:30;102068.88;;;10.51;100.00
69528;BME280;57136;51.986;4.468;2022-10-31T06:30:55;102072.13;;;10.42;100.00
69528;BME280;57136;51.986;4.468;2022-10-31T06:33:20;102073.03;;;10.42;100.00
69528;BME280;57136;51.986;4.468;2022-10-31T06:35:46;102075.56;;;10.39;100.00
69528;BME280;57136;51.986;4.468;2022-10-31T06:38:12;102065.81;;;10.33;100.00
69528;BME280;57136;51.986;4.468;2022-10-31T06:40:38;102072.69;;;10.30;100.00
69528;BME280;57136;51.986;4.468;2022-10-31T06:43:03;102071.91;;;10.34;100.00
69528;BME280;57136;51.986;4.468;2022-10-31T06:45:29;102065.03;;;10.38;100.00
69528;BME280;57136;51.986;4.468;2022-10-31T06:47:55;102064.28;;;10.40;100.00
69528;BME280;57136;51.986;4.468;2022-10-31T06:50:21;102071.28;;;10.41;100.00
69528;BME280;57136;51.986;4.468;2022-10-31T06:52:54;102066.06;;;10.43;100.00
69528;BME280;57136;51.986;4.468;2022-10-31T06:55:21;102067.75;;;10.41;100.00
69528;BME280;57136;51.986;4.468;2022-10-31T06:57:59;102076.50;;;10.43;100.00
69528;BME280;57136;51.986;4.468;2022-10-31T07:00:27;102082.63;;;10.43;100.00
69528;BME280;57136;51.986;4.468;2022-10-31T07:03:04;102078.34;;;10.47;100.00
69528;BME280;57136;51.986;4.468;2022-10-31T07:05:30;102082.75;;;10.49;100.00
69528;BME280;57136;51.986;4.468;2022-10-31T07:07:58;102084.59;;;10.54;100.00
69528;BME280;57136;51.986;4.468;2022-10-31T07:10:26;102086.44;;;10.58;100.00
69528;BME280;57136;51.986;4.468;2022-10-31T07:12:55;102089.13;;;10.61;100.00
69528;BME280;57136;51.986;4.468;2022-10-31T07:15:21;102095.34;;;10.68;100.00
69528;BME280;57136;51.986;4.468;2022-10-31T07:17:46;102098.13;;;10.75;100.00
69528;BME280;57136;51.986;4.468;2022-10-31T07:20:12;102093.91;;;10.81;100.00
69528;BME280;57136;51.986;4.468;2022-10-31T07:22:37;102095.81;;;10.86;100.00
69528;BME280;57136;51.986;4.468;2022-10-31T07:25:03;102090.75;;;10.94;100.00
69528;BME280;57136;51.986;4.468;2022-10-31T07:27:35;102084.03;;;11.04;100.00
69528;BME280;57136;51.986;4.468;2022-10-31T07:30:00;102089.38;;;11.10;100.00
69528;BME280;57136;51.986;4.468;2022-10-31T07:32:25;102090.63;;;11.26;100.00
69528;BME280;57136;51.986;4.468;2022-10-31T07:34:51;102091.63;;;11.34;100.00
69528;BME280;57136;51.986;4.468;2022-10-31T07:37:16;102093.56;;;11.43;100.00
69528;BME280;57136;51.986;4.468;2022-10-31T07:39:41;102082.38;;;11.49;100.00
69528;BME280;57136;51.986;4.468;2022-10-31T07:42:06;102086.28;;;11.69;100.00
69528;BME280;57136;51.986;4.468;2022-10-31T07:44:31;102089.91;;;11.78;100.00
69528;BME280;57136;51.986;4.468;2022-10-31T07:46:57;102084.44;;;11.65;100.00
69528;BME280;57136;51.986;4.468;2022-10-31T07:49:22;102085.63;;;11.81;100.00
69528;BME280;57136;51.986;4.468;2022-10-31T07:51:50;102090.72;;;11.74;100.00
69528;BME280;57136;51.986;4.468;2022-10-31T07:54:15;102082.81;;;11.72;100.00
69528;BME280;57136;51.986;4.468;2022-10-31T07:56:40;102071.44;;;11.68;100.00
69528;BME280;57136;51.986;4.468;2022-10-31T07:59:06;102072.38;;;11.72;100.00
69528;BME280;57136;51.986;4.468;2022-10-31T08:01:31;102075.03;;;11.74;100.00
69528;BME280;57136;51.986;4.468;2022-10-31T08:03:56;102075.91;;;11.74;100.00
69528;BME280;57136;51.986;4.468;2022-10-31T08:06:21;102075.03;;;11.74;100.00
69528;BME280;57136;51.986;4.468;2022-10-31T08:08:47;102072.38;;;11.72;100.00
69528;BME280;57136;51.986;4.468;2022-10-31T08:11:12;102076.44;;;12.01;100.00
69528;BME280;57136;51.986;4.468;2022-10-31T08:13:37;102079.97;;;12.03;100.00
69528;BME280;57136;51.986;4.468;2022-10-31T08:16:03;102081.13;;;12.20;100.00
69528;BME280;57136;51.986;4.468;2022-10-31T08:18:30;102077.59;;;12.17;100.00
69528;BME280;57136;51.986;4.468;2022-10-31T08:20:55;102080.94;;;12.08;100.00
69528;BME280;57136;51.986;4.468;2022-10-31T08:23:20;102082.06;;;12.22;100.00
69528;BME280;57136;51.986;4.468;2022-10-31T08:25:46;102077.81;;;12.29;100.00
69528;BME280;57136;51.986;4.468;2022-10-31T08:28:14;102078.16;;;12.49;100.00
69528;BME280;57136;51.986;4.468;2022-10-31T08:30:40;102084.53;;;12.67;100.00
69528;BME280;57136;51.986;4.468;2022-10-31T08:33:12;102089.09;;;12.80;100.00
69528;BME280;57136;51.986;4.468;2022-10-31T08:35:37;102083.22;;;12.97;100.00
69528;BME280;57136;51.986;4.468;2022-10-31T08:38:03;102086.97;;;13.16;100.00
69528;BME280;57136;51.986;4.468;2022-10-31T08:40:32;102078.81;;;13.57;100.00
69528;BME280;57136;51.986;4.468;2022-10-31T08:43:01;102072.94;;;13.75;100.00
69528;BME280;57136;51.986;4.468;2022-10-31T08:45:28;102071.53;;;14.12;100.00
69528;BME280;57136;51.986;4.468;2022-10-31T08:47:58;102072.91;;;14.70;100.00
69528;BME280;57136;51.986;4.468;2022-10-31T08:50:24;102072.41;;;15.33;100.00
69528;BME280;57136;51.986;4.468;2022-10-31T08:52:49;102063.78;;;15.71;100.00
69528;BME280;57136;51.986;4.468;2022-10-31T08:55:15;102065.47;;;15.56;100.00
69528;BME280;57136;51.986;4.468;2022-10-31T08:57:41;102057.59;;;15.53;100.00
69528;BME280;57136;51.986;4.468;2022-10-31T09:00:07;102055.91;;;15.77;100.00
69528;BME280;57136;51.986;4.468;2022-10-31T09:02:32;102054.25;;;16.23;100.00
69528;BME280;57136;51.986;4.468;2022-10-31T09:04:57;102048.09;;;16.14;100.00
69528;BME280;57136;51.986;4.468;2022-10-31T09:07:23;102048.09;;;15.93;100.00
69528;BME280;57136;51.986;4.468;2022-10-31T09:09:48;102044.47;;;15.64;100.00
69528;BME280;57136;51.986;4.468;2022-10-31T09:12:13;102031.38;;;15.66;100.00
69528;BME280;57136;51.986;4.468;2022-10-31T09:14:39;102040.09;;;15.63;100.00
69528;BME280;57136;51.986;4.468;2022-10-31T09:17:04;102027.81;;;15.45;100.00
69528;BME280;57136;51.986;4.468;2022-10-31T09:19:29;102033.06;;;15.42;100.00
69528;BME280;57136;51.986;4.468;2022-10-31T09:21:55;102025.13;;;15.28;100.00
69528;BME280;57136;51.986;4.468;2022-10-31T09:24:20;102015.44;;;15.22;100.00
69528;BME280;57136;51.986;4.468;2022-10-31T09:26:46;102012.81;;;15.22;100.00
69528;BME280;57136;51.986;4.468;2022-10-31T09:29:11;102006.78;;;15.45;100.00
69528;BME280;57136;51.986;4.468;2022-10-31T09:31:36;102009.34;;;15.30;100.00
69528;BME280;57136;51.986;4.468;2022-10-31T09:34:02;102006.75;;;15.28;100.00
69528;BME280;57136;51.986;4.468;2022-10-31T09:36:27;101998.84;;;15.34;100.00
69528;BME280;57136;51.986;4.468;2022-10-31T09:38:53;101991.88;;;15.30;100.00
69528;BME280;57136;51.986;4.468;2022-10-31T09:44:17;101998.09;;;15.68;100.00
69528;BME280;57136;51.986;4.468;2022-10-31T09:49:33;101988.50;;;15.99;100.00
69528;BME280;57136;51.986;4.468;2022-10-31T09:52:20;101983.22;;;16.21;100.00
69528;BME280;57136;51.986;4.468;2022-10-31T09:57:40;101974.47;;;16.28;100.00
69528;BME280;57136;51.986;4.468;2022-10-31T10:00:10;101967.44;;;16.37;100.00
69528;BME280;57136;51.986;4.468;2022-10-31T10:05:45;101964.81;;;16.33;100.00
69528;BME280;57136;51.986;4.468;2022-10-31T10:08:18;101975.28;;;16.58;100.00
69528;BME280;57136;51.986;4.468;2022-10-31T10:21:33;101950.66;;;16.81;100.00
69528;BME280;57136;51.986;4.468;2022-10-31T10:24:22;101946.03;;;17.30;100.00
69528;BME280;57136;51.986;4.468;2022-10-31T10:31:58;101930.34;;;18.31;93.00
69528;BME280;57136;51.986;4.468;2022-10-31T10:37:04;101923.53;;;18.86;88.35
69528;BME280;57136;51.986;4.468;2022-10-31T10:39:36;101924.69;;;18.64;89.04
69528;BME280;57136;51.986;4.468;2022-10-31T10:42:15;101922.38;;;18.37;87.51
69528;BME280;57136;51.986;4.468;2022-10-31T10:45:00;101923.34;;;18.27;89.64
69528;BME280;57136;51.986;4.468;2022-10-31T10:48:03;101919.03;;;18.18;89.25
69528;BME280;57136;51.986;4.468;2022-10-31T10:50:37;101917.22;;;18.23;88.45
69528;BME280;57136;51.986;4.468;2022-10-31T10:58:24;101908.53;;;18.12;93.18
69528;BME280;57136;51.986;4.468;2022-10-31T11:00:50;101912.03;;;18.14;93.29
69528;BME280;57136;51.986;4.468;2022-10-31T11:03:18;101908.53;;;18.12;94.46
69528;BME280;57136;51.986;4.468;2022-10-31T11:05:50;101903.16;;;18.24;94.13
69528;BME280;57136;51.986;4.468;2022-10-31T11:08:27;101900.59;;;18.14;93.43
69528;BME280;57136;51.986;4.468;2022-10-31T11:11:41;101896.06;;;18.28;93.54
69528;BME280;57136;51.986;4.468;2022-10-31T11:13:44;101897.59;;;18.49;91.37
69528;BME280;57136;51.986;4.468;2022-10-31T11:16:13;101899.25;;;18.56;90.50
69528;BME280;57136;51.986;4.468;2022-10-31T11:18:45;101890.47;;;18.56;90.96
69528;BME280;57136;51.986;4.468;2022-10-31T11:21:27;101887.09;;;18.43;90.29
69528;BME280;57136;51.986;4.468;2022-10-31T11:26:28;101876.09;;;18.79;89.13
69528;BME280;57136;51.986;4.468;2022-10-31T11:28:57;101882.34;;;18.71;86.87
69528;BME280;57136;51.986;4.468;2022-10-31T11:31:25;101881.44;;;18.74;87.45
69528;BME280;57136;51.986;4.468;2022-10-31T11:33:59;101874.00;;;18.35;87.75
69528;BME280;57136;51.986;4.468;2022-10-31T11:36:33;101874.97;;;18.25;89.84
69528;BME280;57136;51.986;4.468;2022-10-31T11:39:02;101866.22;;;18.24;90.07
69528;BME280;57136;51.986;4.468;2022-10-31T11:41:33;101868.25;;;17.94;91.42
69528;BME280;57136;51.986;4.468;2022-10-31T11:44:04;101852.66;;;17.68;92.49
69528;BME280;57136;51.986;4.468;2022-10-31T11:48:58;101843.91;;;17.64;94.73
69528;BME280;57136;51.986;4.468;2022-10-31T11:51:26;101849.19;;;17.64;94.56
69528;BME280;57136;51.986;4.468;2022-10-31T11:53:55;101847.25;;;17.82;95.32
69528;BME280;57136;51.986;4.468;2022-10-31T11:56:22;101840.91;;;18.06;94.50
69528;BME280;57136;51.986;4.468;2022-10-31T11:59:03;101833.75;;;18.15;93.74
69528;BME280;57136;51.986;4.468;2022-10-31T12:01:31;101832.00;;;18.15;93.26
69528;BME280;57136;51.986;4.468;2022-10-31T12:04:12;101824.75;;;18.34;93.19
69528;BME280;57136;51.986;4.468;2022-10-31T12:06:40;101811.38;;;18.48;90.50
69528;BME280;57136;51.986;4.468;2022-10-31T12:09:27;101802.06;;;18.18;92.39
69528;BME280;57136;51.986;4.468;2022-10-31T12:17:14;101769.16;;;18.48;92.19
69528;BME280;57136;51.986;4.468;2022-10-31T12:22:29;101764.53;;;18.64;90.77
69528;BME280;57136;51.986;4.468;2022-10-31T12:33:34;101734.59;;;18.64;89.65
69528;BME280;57136;51.986;4.468;2022-10-31T12:36:33;101727.00;;;19.03;89.90
69528;BME280;57136;51.986;4.468;2022-10-31T12:44:59;101702.16;;;18.57;91.36
69528;BME280;57136;51.986;4.468;2022-10-31T12:47:39;101691.31;;;18.15;93.39
69528;BME280;57136;51.986;4.468;2022-10-31T12:53:27;101675.00;;;17.83;94.69
69528;BME280;57136;51.986;4.468;2022-10-31T12:56:16;101672.63;;;17.61;96.39
69528;BME280;57136;51.986;4.468;2022-10-31T12:59:02;101667.50;;;17.47;96.73
69528;BME280;57136;51.986;4.468;2022-10-31T13:01:40;101656.09;;;17.44;97.97
69528;BME280;57136;51.986;4.468;2022-10-31T13:04:19;101647.41;;;17.37;98.45
69528;BME280;57136;51.986;4.468;2022-10-31T13:06:54;101641.16;;;17.46;97.98
69528;BME280;57136;51.986;4.468;2022-10-31T13:09:28;101640.28;;;17.44;97.93
69528;BME280;57136;51.986;4.468;2022-10-31T13:12:08;101642.88;;;17.51;97.80
69528;BME280;57136;51.986;4.468;2022-10-31T13:14:59;101640.13;;;17.58;97.85
69528;BME280;57136;51.986;4.468;2022-10-31T13:17:27;101634.09;;;17.49;97.86
69528;BME280;57136;51.986;4.468;2022-10-31T13:22:44;101621.03;;;17.42;98.67
69528;BME280;57136;51.986;4.468;2022-10-31T13:25:15;101617.28;;;17.60;98.45
69528;BME280;57136;51.986;4.468;2022-10-31T13:27:47;101608.56;;;17.53;98.16
69528;BME280;57136;51.986;4.468;2022-10-31T13:30:17;101615.53;;;17.60;98.27
69528;BME280;57136;51.986;4.468;2022-10-31T13:33:33;101612.84;;;17.63;97.86
69528;BME280;57136;51.986;4.468;2022-10-31T13:44:14;101579.03;;;17.26;100.00
69528;BME280;57136;51.986;4.468;2022-10-31T13:46:42;101578.13;;;17.30;100.00
69528;BME280;57136;51.986;4.468;2022-10-31T13:54:37;101571.97;;;17.31;100.00
69528;BME280;57136;51.986;4.468;2022-10-31T13:57:07;101561.75;;;17.03;100.00
69528;BME280;57136;51.986;4.468;2022-10-31T13:59:47;101559.16;;;16.99;100.00
69528;BME280;57136;51.986;4.468;2022-10-31T14:02:16;101560.03;;;16.99;100.00
69528;BME280;57136;51.986;4.468;2022-10-31T14:04:48;101554.66;;;17.07;100.00
69528;BME280;57136;51.986;4.468;2022-10-31T14:07:19;101546.00;;;16.97;100.00
69528;BME280;57136;51.986;4.468;2022-10-31T14:09:56;101551.03;;;17.19;100.00
69528;BME280;57136;51.986;4.468;2022-10-31T14:12:43;101538.91;;;17.05;100.00
69528;BME280;57136;51.986;4.468;2022-10-31T14:15:21;101527.41;;;17.11;100.00
69528;BME280;57136;51.986;4.468;2022-10-31T14:17:57;101523.84;;;17.15;100.00
69528;BME280;57136;51.986;4.468;2022-10-31T14:20:40;101511.69;;;17.05;100.00
69528;BME280;57136;51.986;4.468;2022-10-31T14:28:56;101494.28;;;16.88;100.00
69528;BME280;57136;51.986;4.468;2022-10-31T14:31:34;101493.44;;;16.86;100.00
69528;BME280;57136;51.986;4.468;2022-10-31T14:36:45;101479.44;;;16.86;100.00
69528;BME280;57136;51.986;4.468;2022-10-31T14:39:18;101467.78;;;17.09;100.00
69528;BME280;57136;51.986;4.468;2022-10-31T14:51:12;101451.38;;;16.80;100.00
69528;BME280;57136;51.986;4.468;2022-10-31T14:53:46;101454.88;;;16.84;100.00
69528;BME280;57136;51.986;4.468;2022-10-31T14:56:20;101441.03;;;16.66;100.00